sensor_id;sensor_type;location;lat;lon;timestamp;P1;durP1;ratioP1;P2;durP2;ratioP2
63005;SDS011;53704;52.532;6.426;2024-03-17T00:00:42;15.77;;;7.38;;
63005;SDS011;53704;52.532;6.426;2024-03-17T00:03:08;21.25;;;7.03;;
63005;SDS011;53704;52.532;6.426;2024-03-17T00:05:34;13.88;;;6.63;;
63005;SDS011;53704;52.532;6.426;2024-03-17T00:08:01;11.38;;;4.95;;
63005;SDS011;53704;52.532;6.426;2024-03-17T00:10:29;11.65;;;4.43;;
63005;SDS011;53704;52.532;6.426;2024-03-17T00:12:59;8.38;;;3.72;;
63005;SDS011;53704;52.532;6.426;2024-03-17T00:15:25;7.55;;;3.03;;
63005;SDS011;53704;52.532;6.426;2024-03-17T00:17:51;7.47;;;2.60;;
63005;SDS011;53704;52.532;6.426;2024-03-17T00:20:17;10.27;;;3.20;;
63005;SDS011;53704;52.532;6.426;2024-03-17T00:22:49;7.57;;;2.55;;
63005;SDS011;53704;52.532;6.426;2024-03-17T00:25:16;9.27;;;2.13;;
63005;SDS011;53704;52.532;6.426;2024-03-17T00:27:42;4.75;;;1.80;;
63005;SDS011;53704;52.532;6.426;2024-03-17T00:30:10;6.30;;;1.83;;
63005;SDS011;53704;52.532;6.426;2024-03-17T00:32:41;5.60;;;1.67;;
63005;SDS011;53704;52.532;6.426;2024-03-17T00:35:07;12.20;;;2.08;;
63005;SDS011;53704;52.532;6.426;2024-03-17T00:37:34;9.48;;;1.50;;
63005;SDS011;53704;52.532;6.426;2024-03-17T00:40:00;2.15;;;1.60;;
63005;SDS011;53704;52.532;6.426;2024-03-17T00:42:26;6.53;;;2.10;;
63005;SDS011;53704;52.532;6.426;2024-03-17T00:44:52;8.75;;;2.20;;
63005;SDS011;53704;52.532;6.426;2024-03-17T00:47:17;3.45;;;2.20;;
63005;SDS011;53704;52.532;6.426;2024-03-17T00:49:43;3.80;;;1.95;;
63005;SDS011;53704;52.532;6.426;2024-03-17T00:52:08;5.18;;;1.80;;
63005;SDS011;53704;52.532;6.426;2024-03-17T00:54:34;3.92;;;1.75;;
63005;SDS011;53704;52.532;6.426;2024-03-17T00:57:00;3.97;;;1.90;;
63005;SDS011;53704;52.532;6.426;2024-03-17T00:59:25;6.05;;;2.25;;
63005;SDS011;53704;52.532;6.426;2024-03-17T01:01:51;10.55;;;3.67;;
63005;SDS011;53704;52.532;6.426;2024-03-17T01:04:16;12.73;;;3.08;;
63005;SDS011;53704;52.532;6.426;2024-03-17T01:06:41;7.70;;;2.15;;
63005;SDS011;53704;52.532;6.426;2024-03-17T01:09:07;7.80;;;2.33;;
63005;SDS011;53704;52.532;6.426;2024-03-17T01:11:35;3.65;;;2.08;;
63005;SDS011;53704;52.532;6.426;2024-03-17T01:14:01;5.15;;;1.90;;
63005;SDS011;53704;52.532;6.426;2024-03-17T01:16:26;6.55;;;2.40;;
63005;SDS011;53704;52.532;6.426;2024-03-17T01:18:52;9.20;;;2.70;;
63005;SDS011;53704;52.532;6.426;2024-03-17T01:21:17;5.07;;;2.35;;
63005;SDS011;53704;52.532;6.426;2024-03-17T01:23:45;6.00;;;2.38;;
63005;SDS011;53704;52.532;6.426;2024-03-17T01:26:12;4.90;;;2.50;;
63005;SDS011;53704;52.532;6.426;2024-03-17T01:28:38;8.73;;;2.65;;
63005;SDS011;53704;52.532;6.426;2024-03-17T01:31:06;6.00;;;2.75;;
63005;SDS011;53704;52.532;6.426;2024-03-17T01:33:32;6.97;;;3.20;;
63005;SDS011;53704;52.532;6.426;2024-03-17T01:35:58;5.90;;;2.83;;
63005;SDS011;53704;52.532;6.426;2024-03-17T01:38:23;7.93;;;2.78;;
63005;SDS011;53704;52.532;6.426;2024-03-17T01:40:49;8.30;;;3.00;;
63005;SDS011;53704;52.532;6.426;2024-03-17T01:43:14;9.07;;;2.72;;
63005;SDS011;53704;52.532;6.426;2024-03-17T01:45:40;3.83;;;2.42;;
63005;SDS011;53704;52.532;6.426;2024-03-17T01:48:08;9.93;;;2.67;;
63005;SDS011;53704;52.532;6.426;2024-03-17T01:50:38;7.18;;;2.50;;
63005;SDS011;53704;52.532;6.426;2024-03-17T01:53:05;4.35;;;3.10;;
63005;SDS011;53704;52.532;6.426;2024-03-17T01:55:32;4.30;;;3.28;;
63005;SDS011;53704;52.532;6.426;2024-03-17T01:58:00;4.00;;;2.90;;
63005;SDS011;53704;52.532;6.426;2024-03-17T02:00:26;7.82;;;3.20;;
63005;SDS011;53704;52.532;6.426;2024-03-17T02:02:52;7.47;;;4.13;;
63005;SDS011;53704;52.532;6.426;2024-03-17T02:05:18;7.45;;;3.15;;
63005;SDS011;53704;52.532;6.426;2024-03-17T02:07:43;9.98;;;3.47;;
63005;SDS011;53704;52.532;6.426;2024-03-17T02:10:12;7.38;;;3.05;;
63005;SDS011;53704;52.532;6.426;2024-03-17T02:12:37;6.50;;;2.95;;
63005;SDS011;53704;52.532;6.426;2024-03-17T02:15:03;10.57;;;3.67;;
63005;SDS011;53704;52.532;6.426;2024-03-17T02:17:30;13.10;;;3.55;;
63005;SDS011;53704;52.532;6.426;2024-03-17T02:19:56;8.55;;;3.60;;
63005;SDS011;53704;52.532;6.426;2024-03-17T02:22:22;5.03;;;3.67;;
63005;SDS011;53704;52.532;6.426;2024-03-17T02:24:47;10.80;;;5.18;;
63005;SDS011;53704;52.532;6.426;2024-03-17T02:27:13;8.23;;;4.07;;
63005;SDS011;53704;52.532;6.426;2024-03-17T02:29:38;11.02;;;4.07;;
63005;SDS011;53704;52.532;6.426;2024-03-17T02:32:05;14.30;;;3.25;;
63005;SDS011;53704;52.532;6.426;2024-03-17T02:34:34;7.00;;;3.30;;
63005;SDS011;53704;52.532;6.426;2024-03-17T02:37:00;6.45;;;3.13;;
63005;SDS011;53704;52.532;6.426;2024-03-17T02:39:26;8.23;;;3.85;;
63005;SDS011;53704;52.532;6.426;2024-03-17T02:42:05;7.13;;;3.75;;
63005;SDS011;53704;52.532;6.426;2024-03-17T02:44:36;5.47;;;3.70;;
63005;SDS011;53704;52.532;6.426;2024-03-17T02:47:03;10.57;;;3.92;;
63005;SDS011;53704;52.532;6.426;2024-03-17T02:49:29;7.43;;;3.85;;
63005;SDS011;53704;52.532;6.426;2024-03-17T02:52:01;16.60;;;4.45;;
63005;SDS011;53704;52.532;6.426;2024-03-17T02:54:31;10.18;;;3.53;;
63005;SDS011;53704;52.532;6.426;2024-03-17T02:56:57;4.63;;;3.20;;
63005;SDS011;53704;52.532;6.426;2024-03-17T02:59:23;9.57;;;3.65;;
63005;SDS011;53704;52.532;6.426;2024-03-17T03:01:48;18.50;;;4.40;;
63005;SDS011;53704;52.532;6.426;2024-03-17T03:04:14;7.90;;;4.15;;
63005;SDS011;53704;52.532;6.426;2024-03-17T03:06:40;4.78;;;3.45;;
63005;SDS011;53704;52.532;6.426;2024-03-17T03:09:06;10.50;;;4.30;;
63005;SDS011;53704;52.532;6.426;2024-03-17T03:11:38;6.68;;;4.70;;
63005;SDS011;53704;52.532;6.426;2024-03-17T03:14:04;14.30;;;4.60;;
63005;SDS011;53704;52.532;6.426;2024-03-17T03:16:30;15.68;;;4.75;;
63005;SDS011;53704;52.532;6.426;2024-03-17T03:18:56;9.75;;;4.70;;
63005;SDS011;53704;52.532;6.426;2024-03-17T03:21:21;12.48;;;4.68;;
63005;SDS011;53704;52.532;6.426;2024-03-17T03:23:47;13.25;;;4.82;;
63005;SDS011;53704;52.532;6.426;2024-03-17T03:26:13;4.60;;;4.20;;
63005;SDS011;53704;52.532;6.426;2024-03-17T03:28:39;13.63;;;4.93;;
63005;SDS011;53704;52.532;6.426;2024-03-17T03:31:04;8.50;;;5.47;;
63005;SDS011;53704;52.532;6.426;2024-03-17T03:33:30;10.30;;;5.82;;
63005;SDS011;53704;52.532;6.426;2024-03-17T03:35:55;9.13;;;5.57;;
63005;SDS011;53704;52.532;6.426;2024-03-17T03:38:21;9.07;;;5.45;;
63005;SDS011;53704;52.532;6.426;2024-03-17T03:40:47;17.33;;;6.18;;
63005;SDS011;53704;52.532;6.426;2024-03-17T03:43:13;14.40;;;6.32;;
63005;SDS011;53704;52.532;6.426;2024-03-17T03:45:39;16.60;;;7.00;;
63005;SDS011;53704;52.532;6.426;2024-03-17T03:48:05;11.82;;;6.90;;
63005;SDS011;53704;52.532;6.426;2024-03-17T03:50:33;12.35;;;6.65;;
63005;SDS011;53704;52.532;6.426;2024-03-17T03:52:58;15.10;;;7.40;;
63005;SDS011;53704;52.532;6.426;2024-03-17T03:55:24;13.13;;;6.65;;
63005;SDS011;53704;52.532;6.426;2024-03-17T03:57:49;19.00;;;7.22;;
63005;SDS011;53704;52.532;6.426;2024-03-17T04:00:20;19.40;;;6.55;;
63005;SDS011;53704;52.532;6.426;2024-03-17T04:02:49;17.90;;;6.47;;
63005;SDS011;53704;52.532;6.426;2024-03-17T04:05:15;12.45;;;6.82;;
63005;SDS011;53704;52.532;6.426;2024-03-17T04:07:41;17.35;;;7.85;;
63005;SDS011;53704;52.532;6.426;2024-03-17T04:10:08;17.40;;;8.02;;
63005;SDS011;53704;52.532;6.426;2024-03-17T04:12:35;12.95;;;7.47;;
63005;SDS011;53704;52.532;6.426;2024-03-17T04:15:01;20.40;;;7.00;;
63005;SDS011;53704;52.532;6.426;2024-03-17T04:17:28;17.70;;;7.40;;
63005;SDS011;53704;52.532;6.426;2024-03-17T04:19:54;10.95;;;6.65;;
63005;SDS011;53704;52.532;6.426;2024-03-17T04:22:20;21.67;;;8.40;;
63005;SDS011;53704;52.532;6.426;2024-03-17T04:24:49;16.67;;;7.15;;
63005;SDS011;53704;52.532;6.426;2024-03-17T04:27:25;15.02;;;6.60;;
63005;SDS011;53704;52.532;6.426;2024-03-17T04:29:54;16.05;;;7.07;;
63005;SDS011;53704;52.532;6.426;2024-03-17T04:32:24;14.65;;;8.13;;
63005;SDS011;53704;52.532;6.426;2024-03-17T04:34:49;20.42;;;7.95;;
63005;SDS011;53704;52.532;6.426;2024-03-17T04:37:16;13.95;;;6.35;;
63005;SDS011;53704;52.532;6.426;2024-03-17T04:39:42;15.18;;;6.38;;
63005;SDS011;53704;52.532;6.426;2024-03-17T04:42:09;26.23;;;7.53;;
63005;SDS011;53704;52.532;6.426;2024-03-17T04:44:36;30.40;;;7.95;;
63005;SDS011;53704;52.532;6.426;2024-03-17T04:47:01;9.90;;;7.05;;
63005;SDS011;53704;52.532;6.426;2024-03-17T04:49:32;13.18;;;6.70;;
63005;SDS011;53704;52.532;6.426;2024-03-17T04:52:00;27.77;;;7.85;;
63005;SDS011;53704;52.532;6.426;2024-03-17T04:54:25;13.88;;;6.60;;
63005;SDS011;53704;52.532;6.426;2024-03-17T04:56:51;18.60;;;7.82;;
63005;SDS011;53704;52.532;6.426;2024-03-17T04:59:16;30.63;;;9.10;;
63005;SDS011;53704;52.532;6.426;2024-03-17T05:01:42;16.88;;;7.88;;
63005;SDS011;53704;52.532;6.426;2024-03-17T05:04:07;17.02;;;8.32;;
63005;SDS011;53704;52.532;6.426;2024-03-17T05:06:33;17.88;;;8.95;;
63005;SDS011;53704;52.532;6.426;2024-03-17T05:08:59;17.63;;;8.07;;
63005;SDS011;53704;52.532;6.426;2024-03-17T05:11:24;15.27;;;8.10;;
63005;SDS011;53704;52.532;6.426;2024-03-17T05:13:49;19.25;;;7.20;;
63005;SDS011;53704;52.532;6.426;2024-03-17T05:16:15;12.60;;;7.88;;
63005;SDS011;53704;52.532;6.426;2024-03-17T05:18:41;19.33;;;8.13;;
63005;SDS011;53704;52.532;6.426;2024-03-17T05:21:07;18.95;;;7.75;;
63005;SDS011;53704;52.532;6.426;2024-03-17T05:23:34;15.68;;;7.25;;
63005;SDS011;53704;52.532;6.426;2024-03-17T05:26:02;27.10;;;7.72;;
63005;SDS011;53704;52.532;6.426;2024-03-17T05:28:29;18.38;;;7.25;;
63005;SDS011;53704;52.532;6.426;2024-03-17T05:30:55;13.95;;;7.20;;
63005;SDS011;53704;52.532;6.426;2024-03-17T05:33:22;23.67;;;7.55;;
63005;SDS011;53704;52.532;6.426;2024-03-17T05:35:53;19.45;;;6.97;;
63005;SDS011;53704;52.532;6.426;2024-03-17T05:38:20;11.52;;;6.85;;
63005;SDS011;53704;52.532;6.426;2024-03-17T05:43:22;20.70;;;6.78;;
63005;SDS011;53704;52.532;6.426;2024-03-17T05:45:49;16.00;;;6.70;;
63005;SDS011;53704;52.532;6.426;2024-03-17T05:48:16;14.73;;;6.07;;
63005;SDS011;53704;52.532;6.426;2024-03-17T05:50:42;20.95;;;6.80;;
63005;SDS011;53704;52.532;6.426;2024-03-17T05:53:08;24.67;;;7.57;;
63005;SDS011;53704;52.532;6.426;2024-03-17T05:55:36;11.55;;;7.90;;
63005;SDS011;53704;52.532;6.426;2024-03-17T05:58:04;13.02;;;6.82;;
63005;SDS011;53704;52.532;6.426;2024-03-17T06:00:29;13.18;;;6.65;;
63005;SDS011;53704;52.532;6.426;2024-03-17T06:02:56;11.25;;;6.50;;
63005;SDS011;53704;52.532;6.426;2024-03-17T06:05:22;17.33;;;6.65;;
63005;SDS011;53704;52.532;6.426;2024-03-17T06:07:48;18.58;;;6.97;;
63005;SDS011;53704;52.532;6.426;2024-03-17T06:10:13;13.00;;;6.07;;
63005;SDS011;53704;52.532;6.426;2024-03-17T06:12:39;12.48;;;6.55;;
63005;SDS011;53704;52.532;6.426;2024-03-17T06:15:04;12.90;;;6.75;;
63005;SDS011;53704;52.532;6.426;2024-03-17T06:17:31;15.88;;;6.95;;
63005;SDS011;53704;52.532;6.426;2024-03-17T06:19:56;15.95;;;7.18;;
63005;SDS011;53704;52.532;6.426;2024-03-17T06:22:22;20.70;;;7.35;;
63005;SDS011;53704;52.532;6.426;2024-03-17T06:24:48;14.07;;;6.80;;
63005;SDS011;53704;52.532;6.426;2024-03-17T06:27:14;10.35;;;7.13;;
63005;SDS011;53704;52.532;6.426;2024-03-17T06:29:40;27.45;;;7.80;;
63005;SDS011;53704;52.532;6.426;2024-03-17T06:32:05;15.15;;;7.22;;
63005;SDS011;53704;52.532;6.426;2024-03-17T06:34:31;13.68;;;6.90;;
63005;SDS011;53704;52.532;6.426;2024-03-17T06:36:56;14.30;;;7.10;;
63005;SDS011;53704;52.532;6.426;2024-03-17T06:39:21;21.27;;;7.80;;
63005;SDS011;53704;52.532;6.426;2024-03-17T06:41:47;17.77;;;7.22;;
63005;SDS011;53704;52.532;6.426;2024-03-17T06:44:13;18.23;;;7.15;;
63005;SDS011;53704;52.532;6.426;2024-03-17T06:46:38;12.93;;;6.35;;
63005;SDS011;53704;52.532;6.426;2024-03-17T06:49:03;11.80;;;6.80;;
63005;SDS011;53704;52.532;6.426;2024-03-17T06:51:29;12.77;;;6.13;;
63005;SDS011;53704;52.532;6.426;2024-03-17T06:53:54;17.40;;;7.22;;
63005;SDS011;53704;52.532;6.426;2024-03-17T06:56:20;14.98;;;7.10;;
63005;SDS011;53704;52.532;6.426;2024-03-17T06:58:45;12.63;;;7.45;;
63005;SDS011;53704;52.532;6.426;2024-03-17T07:01:11;17.95;;;7.40;;
63005;SDS011;53704;52.532;6.426;2024-03-17T07:03:36;15.63;;;7.07;;
63005;SDS011;53704;52.532;6.426;2024-03-17T07:06:02;11.77;;;7.07;;
63005;SDS011;53704;52.532;6.426;2024-03-17T07:08:28;18.20;;;7.80;;
63005;SDS011;53704;52.532;6.426;2024-03-17T07:10:59;10.82;;;7.20;;
63005;SDS011;53704;52.532;6.426;2024-03-17T07:13:32;24.23;;;8.38;;
63005;SDS011;53704;52.532;6.426;2024-03-17T07:16:02;15.40;;;8.43;;
63005;SDS011;53704;52.532;6.426;2024-03-17T07:18:29;23.33;;;8.50;;
63005;SDS011;53704;52.532;6.426;2024-03-17T07:20:58;18.30;;;7.90;;
63005;SDS011;53704;52.532;6.426;2024-03-17T07:23:25;19.65;;;8.13;;
63005;SDS011;53704;52.532;6.426;2024-03-17T07:25:54;26.15;;;10.45;;
63005;SDS011;53704;52.532;6.426;2024-03-17T07:28:21;16.42;;;9.45;;
63005;SDS011;53704;52.532;6.426;2024-03-17T07:30:50;15.55;;;9.68;;
63005;SDS011;53704;52.532;6.426;2024-03-17T07:33:18;19.80;;;8.43;;
63005;SDS011;53704;52.532;6.426;2024-03-17T07:38:18;14.57;;;9.40;;
63005;SDS011;53704;52.532;6.426;2024-03-17T07:40:44;17.10;;;10.02;;
63005;SDS011;53704;52.532;6.426;2024-03-17T07:43:10;24.50;;;10.98;;
63005;SDS011;53704;52.532;6.426;2024-03-17T07:45:37;17.25;;;10.18;;
63005;SDS011;53704;52.532;6.426;2024-03-17T07:48:03;16.00;;;9.95;;
63005;SDS011;53704;52.532;6.426;2024-03-17T07:50:28;17.05;;;10.27;;
63005;SDS011;53704;52.532;6.426;2024-03-17T07:52:54;20.75;;;10.85;;
63005;SDS011;53704;52.532;6.426;2024-03-17T07:55:19;14.95;;;9.32;;
63005;SDS011;53704;52.532;6.426;2024-03-17T07:57:45;22.23;;;10.55;;
63005;SDS011;53704;52.532;6.426;2024-03-17T08:00:11;15.60;;;9.73;;
63005;SDS011;53704;52.532;6.426;2024-03-17T08:02:47;23.73;;;10.25;;
63005;SDS011;53704;52.532;6.426;2024-03-17T08:05:12;14.70;;;9.73;;
63005;SDS011;53704;52.532;6.426;2024-03-17T08:07:38;19.10;;;10.32;;
63005;SDS011;53704;52.532;6.426;2024-03-17T08:10:05;13.55;;;9.70;;
63005;SDS011;53704;52.532;6.426;2024-03-17T08:12:31;22.00;;;10.88;;
63005;SDS011;53704;52.532;6.426;2024-03-17T08:14:56;13.75;;;9.27;;
63005;SDS011;53704;52.532;6.426;2024-03-17T08:17:22;23.88;;;9.93;;
63005;SDS011;53704;52.532;6.426;2024-03-17T08:19:47;13.50;;;9.18;;
63005;SDS011;53704;52.532;6.426;2024-03-17T08:22:13;20.52;;;9.88;;
63005;SDS011;53704;52.532;6.426;2024-03-17T08:24:41;14.18;;;9.32;;
63005;SDS011;53704;52.532;6.426;2024-03-17T08:27:07;19.67;;;9.48;;
63005;SDS011;53704;52.532;6.426;2024-03-17T08:29:32;17.73;;;9.82;;
63005;SDS011;53704;52.532;6.426;2024-03-17T08:32:01;14.40;;;9.25;;
63005;SDS011;53704;52.532;6.426;2024-03-17T08:34:26;18.13;;;9.57;;
63005;SDS011;53704;52.532;6.426;2024-03-17T08:36:52;19.63;;;10.23;;
63005;SDS011;53704;52.532;6.426;2024-03-17T08:39:18;17.35;;;9.65;;
63005;SDS011;53704;52.532;6.426;2024-03-17T08:41:44;18.02;;;9.95;;
63005;SDS011;53704;52.532;6.426;2024-03-17T08:44:10;17.08;;;9.95;;
63005;SDS011;53704;52.532;6.426;2024-03-17T08:46:36;17.33;;;9.90;;
63005;SDS011;53704;52.532;6.426;2024-03-17T08:49:01;18.17;;;9.35;;
63005;SDS011;53704;52.532;6.426;2024-03-17T08:51:27;15.43;;;8.65;;
63005;SDS011;53704;52.532;6.426;2024-03-17T08:53:53;17.60;;;8.80;;
63005;SDS011;53704;52.532;6.426;2024-03-17T08:56:19;15.75;;;8.95;;
63005;SDS011;53704;52.532;6.426;2024-03-17T08:58:46;21.13;;;10.02;;
63005;SDS011;53704;52.532;6.426;2024-03-17T09:01:11;14.95;;;9.68;;
63005;SDS011;53704;52.532;6.426;2024-03-17T09:03:39;18.42;;;8.30;;
63005;SDS011;53704;52.532;6.426;2024-03-17T09:06:13;12.88;;;8.68;;
63005;SDS011;53704;52.532;6.426;2024-03-17T09:08:44;16.23;;;9.13;;
63005;SDS011;53704;52.532;6.426;2024-03-17T09:11:13;11.93;;;8.73;;
63005;SDS011;53704;52.532;6.426;2024-03-17T09:13:39;12.90;;;9.15;;
63005;SDS011;53704;52.532;6.426;2024-03-17T09:16:05;14.45;;;9.13;;
63005;SDS011;53704;52.532;6.426;2024-03-17T09:18:31;12.95;;;8.25;;
63005;SDS011;53704;52.532;6.426;2024-03-17T09:21:01;11.68;;;8.60;;
63005;SDS011;53704;52.532;6.426;2024-03-17T09:23:28;9.07;;;8.18;;
63005;SDS011;53704;52.532;6.426;2024-03-17T09:26:01;10.95;;;8.93;;
63005;SDS011;53704;52.532;6.426;2024-03-17T09:28:33;9.80;;;8.55;;
63005;SDS011;53704;52.532;6.426;2024-03-17T09:31:00;11.63;;;9.25;;
63005;SDS011;53704;52.532;6.426;2024-03-17T09:33:29;12.30;;;8.63;;
63005;SDS011;53704;52.532;6.426;2024-03-17T09:35:58;9.02;;;8.05;;
63005;SDS011;53704;52.532;6.426;2024-03-17T09:38:26;14.60;;;8.27;;
63005;SDS011;53704;52.532;6.426;2024-03-17T09:40:52;9.48;;;8.10;;
63005;SDS011;53704;52.532;6.426;2024-03-17T09:43:20;18.90;;;7.82;;
63005;SDS011;53704;52.532;6.426;2024-03-17T09:45:46;8.95;;;6.50;;
63005;SDS011;53704;52.532;6.426;2024-03-17T09:48:16;7.45;;;6.80;;
63005;SDS011;53704;52.532;6.426;2024-03-17T09:51:01;11.50;;;6.82;;
63005;SDS011;53704;52.532;6.426;2024-03-17T09:56:08;10.02;;;6.80;;
63005;SDS011;53704;52.532;6.426;2024-03-17T09:58:36;7.47;;;6.75;;
63005;SDS011;53704;52.532;6.426;2024-03-17T10:01:02;8.23;;;6.63;;
63005;SDS011;53704;52.532;6.426;2024-03-17T10:06:29;9.90;;;6.70;;
63005;SDS011;53704;52.532;6.426;2024-03-17T10:09:01;7.13;;;6.43;;
63005;SDS011;53704;52.532;6.426;2024-03-17T10:11:32;7.30;;;6.63;;
63005;SDS011;53704;52.532;6.426;2024-03-17T10:14:03;8.55;;;7.22;;
63005;SDS011;53704;52.532;6.426;2024-03-17T10:16:34;7.60;;;6.88;;
63005;SDS011;53704;52.532;6.426;2024-03-17T10:19:21;10.25;;;5.72;;
63005;SDS011;53704;52.532;6.426;2024-03-17T10:21:47;11.48;;;5.63;;
63005;SDS011;53704;52.532;6.426;2024-03-17T10:24:23;9.73;;;5.80;;
63005;SDS011;53704;52.532;6.426;2024-03-17T10:26:51;8.48;;;5.38;;
63005;SDS011;53704;52.532;6.426;2024-03-17T10:29:31;5.72;;;5.05;;
63005;SDS011;53704;52.532;6.426;2024-03-17T10:32:04;5.72;;;5.22;;
63005;SDS011;53704;52.532;6.426;2024-03-17T10:34:43;6.80;;;5.22;;
63005;SDS011;53704;52.532;6.426;2024-03-17T10:39:45;6.93;;;5.00;;
63005;SDS011;53704;52.532;6.426;2024-03-17T10:42:14;6.13;;;5.47;;
63005;SDS011;53704;52.532;6.426;2024-03-17T10:44:56;5.40;;;4.78;;
63005;SDS011;53704;52.532;6.426;2024-03-17T10:47:24;10.77;;;5.32;;
63005;SDS011;53704;52.532;6.426;2024-03-17T10:49:51;7.78;;;5.28;;
63005;SDS011;53704;52.532;6.426;2024-03-17T10:52:20;9.07;;;6.00;;
63005;SDS011;53704;52.532;6.426;2024-03-17T10:54:51;6.20;;;5.38;;
63005;SDS011;53704;52.532;6.426;2024-03-17T10:59:59;10.02;;;5.05;;
63005;SDS011;53704;52.532;6.426;2024-03-17T11:02:29;5.15;;;4.80;;
63005;SDS011;53704;52.532;6.426;2024-03-17T11:04:59;6.22;;;5.63;;
63005;SDS011;53704;52.532;6.426;2024-03-17T11:07:27;10.57;;;5.65;;
63005;SDS011;53704;52.532;6.426;2024-03-17T11:09:56;7.53;;;5.30;;
63005;SDS011;53704;52.532;6.426;2024-03-17T11:20:35;5.30;;;4.43;;
63005;SDS011;53704;52.532;6.426;2024-03-17T11:23:04;4.57;;;4.00;;
63005;SDS011;53704;52.532;6.426;2024-03-17T11:28:02;6.97;;;4.25;;
63005;SDS011;53704;52.532;6.426;2024-03-17T11:38:51;6.53;;;4.70;;
63005;SDS011;53704;52.532;6.426;2024-03-17T11:41:42;5.10;;;4.72;;
63005;SDS011;53704;52.532;6.426;2024-03-17T11:46:56;5.10;;;4.70;;
63005;SDS011;53704;52.532;6.426;2024-03-17T11:49:26;7.65;;;4.68;;
63005;SDS011;53704;52.532;6.426;2024-03-17T11:51:53;7.88;;;4.93;;
63005;SDS011;53704;52.532;6.426;2024-03-17T11:54:20;6.40;;;5.25;;
63005;SDS011;53704;52.532;6.426;2024-03-17T11:56:50;5.20;;;4.80;;
63005;SDS011;53704;52.532;6.426;2024-03-17T11:59:17;4.68;;;4.38;;
63005;SDS011;53704;52.532;6.426;2024-03-17T12:01:44;5.38;;;4.97;;
63005;SDS011;53704;52.532;6.426;2024-03-17T12:04:17;8.20;;;5.10;;
63005;SDS011;53704;52.532;6.426;2024-03-17T12:06:45;5.40;;;4.50;;
63005;SDS011;53704;52.532;6.426;2024-03-17T12:14:37;5.13;;;4.68;;
63005;SDS011;53704;52.532;6.426;2024-03-17T12:17:06;6.03;;;4.00;;
63005;SDS011;53704;52.532;6.426;2024-03-17T12:19:33;6.22;;;4.10;;
63005;SDS011;53704;52.532;6.426;2024-03-17T12:22:00;5.30;;;4.30;;
63005;SDS011;53704;52.532;6.426;2024-03-17T12:24:31;39.67;;;5.13;;
63005;SDS011;53704;52.532;6.426;2024-03-17T12:26:58;4.20;;;3.90;;
63005;SDS011;53704;52.532;6.426;2024-03-17T12:29:28;3.92;;;3.63;;
63005;SDS011;53704;52.532;6.426;2024-03-17T12:32:00;4.55;;;4.15;;
63005;SDS011;53704;52.532;6.426;2024-03-17T12:34:27;8.73;;;3.67;;
63005;SDS011;53704;52.532;6.426;2024-03-17T12:36:55;3.97;;;3.63;;
63005;SDS011;53704;52.532;6.426;2024-03-17T12:39:24;4.75;;;3.75;;
63005;SDS011;53704;52.532;6.426;2024-03-17T12:42:04;6.70;;;3.40;;
63005;SDS011;53704;52.532;6.426;2024-03-17T12:44:48;3.47;;;3.17;;
63005;SDS011;53704;52.532;6.426;2024-03-17T12:47:21;3.15;;;2.92;;
63005;SDS011;53704;52.532;6.426;2024-03-17T12:49:52;3.50;;;3.20;;
63005;SDS011;53704;52.532;6.426;2024-03-17T12:55:01;3.28;;;2.75;;
63005;SDS011;53704;52.532;6.426;2024-03-17T12:57:48;4.65;;;3.35;;
63005;SDS011;53704;52.532;6.426;2024-03-17T13:00:33;3.70;;;3.40;;
63005;SDS011;53704;52.532;6.426;2024-03-17T13:03:06;4.80;;;3.63;;
63005;SDS011;53704;52.532;6.426;2024-03-17T13:05:35;3.53;;;3.30;;
63005;SDS011;53704;52.532;6.426;2024-03-17T13:08:01;3.03;;;2.72;;
63005;SDS011;53704;52.532;6.426;2024-03-17T13:10:28;5.88;;;3.13;;
63005;SDS011;53704;52.532;6.426;2024-03-17T13:12:58;2.88;;;2.67;;
63005;SDS011;53704;52.532;6.426;2024-03-17T13:15:28;3.08;;;2.78;;
63005;SDS011;53704;52.532;6.426;2024-03-17T13:17:57;6.05;;;3.15;;
63005;SDS011;53704;52.532;6.426;2024-03-17T13:20:24;6.40;;;3.40;;
63005;SDS011;53704;52.532;6.426;2024-03-17T13:22:51;2.70;;;2.60;;
63005;SDS011;53704;52.532;6.426;2024-03-17T13:25:21;5.55;;;3.05;;
63005;SDS011;53704;52.532;6.426;2024-03-17T13:27:49;4.03;;;3.33;;
63005;SDS011;53704;52.532;6.426;2024-03-17T13:30:15;3.80;;;3.50;;
63005;SDS011;53704;52.532;6.426;2024-03-17T13:32:43;7.88;;;3.22;;
63005;SDS011;53704;52.532;6.426;2024-03-17T13:35:20;3.42;;;3.17;;
63005;SDS011;53704;52.532;6.426;2024-03-17T13:37:46;3.42;;;3.10;;
63005;SDS011;53704;52.532;6.426;2024-03-17T13:40:13;4.60;;;3.38;;
63005;SDS011;53704;52.532;6.426;2024-03-17T13:42:42;4.80;;;3.30;;
63005;SDS011;53704;52.532;6.426;2024-03-17T13:45:10;5.18;;;3.45;;
63005;SDS011;53704;52.532;6.426;2024-03-17T13:47:36;3.63;;;3.22;;
63005;SDS011;53704;52.532;6.426;2024-03-17T13:50:02;3.63;;;3.33;;
63005;SDS011;53704;52.532;6.426;2024-03-17T13:52:31;12.50;;;5.45;;
63005;SDS011;53704;52.532;6.426;2024-03-17T13:54:57;3.63;;;3.35;;
63005;SDS011;53704;52.532;6.426;2024-03-17T13:57:24;3.97;;;3.60;;
63005;SDS011;53704;52.532;6.426;2024-03-17T13:59:51;3.67;;;3.47;;
63005;SDS011;53704;52.532;6.426;2024-03-17T14:02:23;4.57;;;4.18;;
63005;SDS011;53704;52.532;6.426;2024-03-17T14:04:49;5.55;;;4.18;;
63005;SDS011;53704;52.532;6.426;2024-03-17T14:07:14;4.20;;;3.85;;
63005;SDS011;53704;52.532;6.426;2024-03-17T14:09:40;3.95;;;3.65;;
63005;SDS011;53704;52.532;6.426;2024-03-17T14:12:07;4.38;;;3.97;;
63005;SDS011;53704;52.532;6.426;2024-03-17T14:14:33;6.18;;;3.50;;
63005;SDS011;53704;52.532;6.426;2024-03-17T14:16:59;5.97;;;3.97;;
63005;SDS011;53704;52.532;6.426;2024-03-17T14:19:25;9.52;;;4.18;;
63005;SDS011;53704;52.532;6.426;2024-03-17T14:21:50;4.55;;;3.50;;
63005;SDS011;53704;52.532;6.426;2024-03-17T14:24:16;6.20;;;3.50;;
63005;SDS011;53704;52.532;6.426;2024-03-17T14:26:42;4.07;;;3.67;;
63005;SDS011;53704;52.532;6.426;2024-03-17T14:29:09;10.20;;;4.05;;
63005;SDS011;53704;52.532;6.426;2024-03-17T14:31:34;5.35;;;4.00;;
63005;SDS011;53704;52.532;6.426;2024-03-17T14:34:06;5.35;;;4.75;;
63005;SDS011;53704;52.532;6.426;2024-03-17T14:36:32;8.38;;;4.13;;
63005;SDS011;53704;52.532;6.426;2024-03-17T14:38:58;8.07;;;4.28;;
63005;SDS011;53704;52.532;6.426;2024-03-17T14:41:27;5.07;;;4.22;;
63005;SDS011;53704;52.532;6.426;2024-03-17T14:43:54;4.80;;;4.32;;
63005;SDS011;53704;52.532;6.426;2024-03-17T14:46:21;5.22;;;4.80;;
63005;SDS011;53704;52.532;6.426;2024-03-17T14:48:47;4.95;;;4.43;;
63005;SDS011;53704;52.532;6.426;2024-03-17T14:51:13;9.15;;;4.85;;
63005;SDS011;53704;52.532;6.426;2024-03-17T14:53:39;7.25;;;4.43;;
63005;SDS011;53704;52.532;6.426;2024-03-17T14:56:13;5.97;;;4.85;;
63005;SDS011;53704;52.532;6.426;2024-03-17T14:58:42;6.00;;;4.60;;
63005;SDS011;53704;52.532;6.426;2024-03-17T15:01:08;6.97;;;5.13;;
63005;SDS011;53704;52.532;6.426;2024-03-17T15:03:37;5.43;;;5.00;;
63005;SDS011;53704;52.532;6.426;2024-03-17T15:06:11;4.93;;;4.53;;
63005;SDS011;53704;52.532;6.426;2024-03-17T15:08:38;5.75;;;5.05;;
63005;SDS011;53704;52.532;6.426;2024-03-17T15:11:03;6.20;;;4.68;;
63005;SDS011;53704;52.532;6.426;2024-03-17T15:13:30;11.30;;;5.30;;
63005;SDS011;53704;52.532;6.426;2024-03-17T15:15:56;14.60;;;5.93;;
63005;SDS011;53704;52.532;6.426;2024-03-17T15:18:21;7.97;;;5.22;;
63005;SDS011;53704;52.532;6.426;2024-03-17T15:20:53;6.70;;;5.22;;
63005;SDS011;53704;52.532;6.426;2024-03-17T15:23:20;11.25;;;4.95;;
63005;SDS011;53704;52.532;6.426;2024-03-17T15:25:46;5.55;;;4.95;;
63005;SDS011;53704;52.532;6.426;2024-03-17T15:28:12;7.80;;;5.45;;